sensor_id;sensor_type;location;lat;lon;timestamp;P1;durP1;ratioP1;P2;durP2;ratioP2
65759;SDS011;52496;51.082;5.066;2022-12-07T00:02:03;28.02;;;16.88;;
65759;SDS011;52496;51.082;5.066;2022-12-07T00:04:34;27.75;;;15.85;;
65759;SDS011;52496;51.082;5.066;2022-12-07T00:07:04;25.77;;;16.00;;
65759;SDS011;52496;51.082;5.066;2022-12-07T00:09:35;28.40;;;15.23;;
65759;SDS011;52496;51.082;5.066;2022-12-07T00:12:05;28.27;;;15.10;;
65759;SDS011;52496;51.082;5.066;2022-12-07T00:14:36;27.30;;;15.98;;
65759;SDS011;52496;51.082;5.066;2022-12-07T00:17:06;28.35;;;16.90;;
65759;SDS011;52496;51.082;5.066;2022-12-07T00:19:37;26.27;;;14.93;;
65759;SDS011;52496;51.082;5.066;2022-12-07T00:22:07;26.60;;;15.45;;
65759;SDS011;52496;51.082;5.066;2022-12-07T00:24:38;23.42;;;15.02;;
65759;SDS011;52496;51.082;5.066;2022-12-07T00:27:08;28.05;;;16.52;;
65759;SDS011;52496;51.082;5.066;2022-12-07T00:29:39;24.65;;;15.13;;
65759;SDS011;52496;51.082;5.066;2022-12-07T00:32:09;28.80;;;17.00;;
65759;SDS011;52496;51.082;5.066;2022-12-07T00:34:40;28.35;;;17.92;;
65759;SDS011;52496;51.082;5.066;2022-12-07T00:37:11;36.10;;;18.88;;
65759;SDS011;52496;51.082;5.066;2022-12-07T00:39:42;34.58;;;18.95;;
65759;SDS011;52496;51.082;5.066;2022-12-07T00:42:13;35.10;;;19.75;;
65759;SDS011;52496;51.082;5.066;2022-12-07T00:44:43;31.02;;;18.77;;
65759;SDS011;52496;51.082;5.066;2022-12-07T00:47:14;36.33;;;20.83;;
65759;SDS011;52496;51.082;5.066;2022-12-07T00:49:44;48.83;;;23.10;;
65759;SDS011;52496;51.082;5.066;2022-12-07T00:52:15;43.33;;;20.60;;
65759;SDS011;52496;51.082;5.066;2022-12-07T00:54:45;48.75;;;23.27;;
65759;SDS011;52496;51.082;5.066;2022-12-07T00:57:16;41.38;;;21.70;;
65759;SDS011;52496;51.082;5.066;2022-12-07T00:59:47;40.38;;;21.92;;
65759;SDS011;52496;51.082;5.066;2022-12-07T01:02:18;34.72;;;21.48;;
65759;SDS011;52496;51.082;5.066;2022-12-07T01:04:49;37.67;;;21.20;;
65759;SDS011;52496;51.082;5.066;2022-12-07T01:07:19;44.25;;;21.83;;
65759;SDS011;52496;51.082;5.066;2022-12-07T01:09:50;44.67;;;23.70;;
65759;SDS011;52496;51.082;5.066;2022-12-07T01:12:21;38.55;;;21.08;;
65759;SDS011;52496;51.082;5.066;2022-12-07T01:14:51;36.47;;;20.65;;
65759;SDS011;52496;51.082;5.066;2022-12-07T01:17:22;38.00;;;19.10;;
65759;SDS011;52496;51.082;5.066;2022-12-07T01:19:52;38.25;;;20.60;;
65759;SDS011;52496;51.082;5.066;2022-12-07T01:22:23;40.60;;;21.27;;
65759;SDS011;52496;51.082;5.066;2022-12-07T01:24:54;36.75;;;20.70;;
65759;SDS011;52496;51.082;5.066;2022-12-07T01:27:24;37.55;;;21.90;;
65759;SDS011;52496;51.082;5.066;2022-12-07T01:29:55;38.03;;;20.10;;
65759;SDS011;52496;51.082;5.066;2022-12-07T01:32:25;34.83;;;19.45;;
65759;SDS011;52496;51.082;5.066;2022-12-07T01:34:56;37.03;;;20.40;;
65759;SDS011;52496;51.082;5.066;2022-12-07T01:37:27;30.67;;;19.05;;
65759;SDS011;52496;51.082;5.066;2022-12-07T01:39:57;37.53;;;19.20;;
65759;SDS011;52496;51.082;5.066;2022-12-07T01:42:28;32.70;;;17.95;;
65759;SDS011;52496;51.082;5.066;2022-12-07T01:47:52;29.85;;;18.95;;
65759;SDS011;52496;51.082;5.066;2022-12-07T01:50:25;36.70;;;19.38;;
65759;SDS011;52496;51.082;5.066;2022-12-07T01:52:58;36.67;;;20.23;;
65759;SDS011;52496;51.082;5.066;2022-12-07T01:55:31;35.33;;;20.85;;
65759;SDS011;52496;51.082;5.066;2022-12-07T01:58:02;38.72;;;20.13;;
65759;SDS011;52496;51.082;5.066;2022-12-07T02:00:34;32.25;;;20.60;;
65759;SDS011;52496;51.082;5.066;2022-12-07T02:05:35;37.15;;;20.42;;
65759;SDS011;52496;51.082;5.066;2022-12-07T02:08:08;38.55;;;21.00;;
65759;SDS011;52496;51.082;5.066;2022-12-07T02:10:40;29.80;;;19.10;;
65759;SDS011;52496;51.082;5.066;2022-12-07T02:13:15;37.45;;;21.17;;
65759;SDS011;52496;51.082;5.066;2022-12-07T02:15:54;31.50;;;19.20;;
65759;SDS011;52496;51.082;5.066;2022-12-07T02:18:55;33.38;;;20.10;;
65759;SDS011;52496;51.082;5.066;2022-12-07T02:22:18;34.30;;;19.52;;
65759;SDS011;52496;51.082;5.066;2022-12-07T02:24:57;36.22;;;21.23;;
65759;SDS011;52496;51.082;5.066;2022-12-07T02:27:46;34.70;;;19.73;;
65759;SDS011;52496;51.082;5.066;2022-12-07T02:30:28;34.40;;;21.38;;
65759;SDS011;52496;51.082;5.066;2022-12-07T02:33:08;38.00;;;19.88;;
65759;SDS011;52496;51.082;5.066;2022-12-07T02:35:46;35.72;;;19.60;;
65759;SDS011;52496;51.082;5.066;2022-12-07T02:38:31;35.40;;;20.23;;
65759;SDS011;52496;51.082;5.066;2022-12-07T02:43:57;35.13;;;19.88;;
65759;SDS011;52496;51.082;5.066;2022-12-07T02:46:32;34.55;;;19.95;;
65759;SDS011;52496;51.082;5.066;2022-12-07T02:49:06;41.85;;;21.75;;
65759;SDS011;52496;51.082;5.066;2022-12-07T02:51:39;50.05;;;23.65;;
65759;SDS011;52496;51.082;5.066;2022-12-07T02:54:11;34.92;;;20.77;;
65759;SDS011;52496;51.082;5.066;2022-12-07T02:59:21;35.55;;;20.20;;
65759;SDS011;52496;51.082;5.066;2022-12-07T03:13:13;42.03;;;21.33;;
65759;SDS011;52496;51.082;5.066;2022-12-07T03:15:58;42.42;;;21.98;;
65759;SDS011;52496;51.082;5.066;2022-12-07T03:18:50;43.75;;;20.83;;
65759;SDS011;52496;51.082;5.066;2022-12-07T03:21:33;43.88;;;21.77;;
65759;SDS011;52496;51.082;5.066;2022-12-07T03:24:09;38.70;;;21.95;;
65759;SDS011;52496;51.082;5.066;2022-12-07T03:26:47;41.05;;;22.13;;
65759;SDS011;52496;51.082;5.066;2022-12-07T03:29:27;34.10;;;20.35;;
65759;SDS011;52496;51.082;5.066;2022-12-07T03:32:12;37.75;;;21.95;;
65759;SDS011;52496;51.082;5.066;2022-12-07T03:34:57;45.03;;;21.58;;
65759;SDS011;52496;51.082;5.066;2022-12-07T03:40:39;44.00;;;22.15;;
65759;SDS011;52496;51.082;5.066;2022-12-07T03:43:17;38.95;;;21.95;;
65759;SDS011;52496;51.082;5.066;2022-12-07T03:46:14;47.80;;;21.90;;
65759;SDS011;52496;51.082;5.066;2022-12-07T03:49:14;44.60;;;20.35;;
65759;SDS011;52496;51.082;5.066;2022-12-07T03:54:55;55.50;;;20.42;;
65759;SDS011;52496;51.082;5.066;2022-12-07T03:57:34;37.72;;;17.27;;
65759;SDS011;52496;51.082;5.066;2022-12-07T04:00:06;98.28;;;23.55;;
65759;SDS011;52496;51.082;5.066;2022-12-07T04:02:39;29.42;;;16.45;;
65759;SDS011;52496;51.082;5.066;2022-12-07T04:05:12;28.73;;;17.23;;
65759;SDS011;52496;51.082;5.066;2022-12-07T04:07:42;32.28;;;18.05;;
65759;SDS011;52496;51.082;5.066;2022-12-07T04:10:13;32.60;;;17.33;;
65759;SDS011;52496;51.082;5.066;2022-12-07T04:12:43;30.23;;;18.13;;
65759;SDS011;52496;51.082;5.066;2022-12-07T04:15:14;32.35;;;16.65;;
65759;SDS011;52496;51.082;5.066;2022-12-07T04:17:45;31.27;;;17.27;;
65759;SDS011;52496;51.082;5.066;2022-12-07T04:20:15;27.35;;;17.27;;
65759;SDS011;52496;51.082;5.066;2022-12-07T04:22:46;55.13;;;20.25;;
65759;SDS011;52496;51.082;5.066;2022-12-07T04:25:17;26.35;;;17.50;;
65759;SDS011;52496;51.082;5.066;2022-12-07T04:27:48;29.67;;;16.83;;
65759;SDS011;52496;51.082;5.066;2022-12-07T04:30:18;28.30;;;16.70;;
65759;SDS011;52496;51.082;5.066;2022-12-07T04:32:49;36.30;;;17.27;;
65759;SDS011;52496;51.082;5.066;2022-12-07T04:35:19;45.50;;;19.35;;
65759;SDS011;52496;51.082;5.066;2022-12-07T04:37:50;37.60;;;18.30;;
65759;SDS011;52496;51.082;5.066;2022-12-07T04:40:20;43.40;;;16.67;;
65759;SDS011;52496;51.082;5.066;2022-12-07T04:42:51;30.45;;;15.85;;
65759;SDS011;52496;51.082;5.066;2022-12-07T04:45:21;28.00;;;16.95;;
65759;SDS011;52496;51.082;5.066;2022-12-07T04:47:52;28.27;;;16.50;;
65759;SDS011;52496;51.082;5.066;2022-12-07T04:50:22;30.73;;;17.75;;
65759;SDS011;52496;51.082;5.066;2022-12-07T04:52:53;27.65;;;15.65;;
65759;SDS011;52496;51.082;5.066;2022-12-07T04:55:24;51.28;;;18.80;;
65759;SDS011;52496;51.082;5.066;2022-12-07T04:57:54;42.17;;;19.73;;
65759;SDS011;52496;51.082;5.066;2022-12-07T05:00:25;32.65;;;18.38;;
65759;SDS011;52496;51.082;5.066;2022-12-07T05:02:55;78.90;;;22.45;;
65759;SDS011;52496;51.082;5.066;2022-12-07T05:05:26;56.25;;;23.77;;
65759;SDS011;52496;51.082;5.066;2022-12-07T05:07:57;39.47;;;20.73;;
65759;SDS011;52496;51.082;5.066;2022-12-07T05:10:27;48.60;;;23.25;;
65759;SDS011;52496;51.082;5.066;2022-12-07T05:12:57;45.63;;;24.80;;
65759;SDS011;52496;51.082;5.066;2022-12-07T05:15:28;45.05;;;24.55;;
65759;SDS011;52496;51.082;5.066;2022-12-07T05:17:59;43.05;;;23.10;;
65759;SDS011;52496;51.082;5.066;2022-12-07T05:20:29;43.53;;;23.08;;
65759;SDS011;52496;51.082;5.066;2022-12-07T05:23:00;55.40;;;26.70;;
65759;SDS011;52496;51.082;5.066;2022-12-07T05:25:30;51.55;;;25.27;;
65759;SDS011;52496;51.082;5.066;2022-12-07T05:28:01;44.00;;;24.63;;
65759;SDS011;52496;51.082;5.066;2022-12-07T05:30:32;54.10;;;24.35;;
65759;SDS011;52496;51.082;5.066;2022-12-07T05:33:03;55.70;;;25.75;;
65759;SDS011;52496;51.082;5.066;2022-12-07T05:35:33;56.67;;;26.33;;
65759;SDS011;52496;51.082;5.066;2022-12-07T05:38:04;44.67;;;23.88;;
65759;SDS011;52496;51.082;5.066;2022-12-07T05:40:35;57.33;;;25.00;;
65759;SDS011;52496;51.082;5.066;2022-12-07T05:43:06;47.30;;;25.25;;
65759;SDS011;52496;51.082;5.066;2022-12-07T05:45:37;45.92;;;24.50;;
65759;SDS011;52496;51.082;5.066;2022-12-07T05:48:07;49.75;;;24.90;;
65759;SDS011;52496;51.082;5.066;2022-12-07T05:50:38;56.58;;;26.02;;
65759;SDS011;52496;51.082;5.066;2022-12-07T05:53:08;43.90;;;24.85;;
65759;SDS011;52496;51.082;5.066;2022-12-07T05:55:39;50.03;;;24.98;;
65759;SDS011;52496;51.082;5.066;2022-12-07T05:58:10;58.65;;;26.63;;
65759;SDS011;52496;51.082;5.066;2022-12-07T06:00:59;44.20;;;24.05;;
65759;SDS011;52496;51.082;5.066;2022-12-07T06:03:29;43.50;;;22.63;;
65759;SDS011;52496;51.082;5.066;2022-12-07T06:06:00;47.17;;;25.67;;
65759;SDS011;52496;51.082;5.066;2022-12-07T06:08:30;47.53;;;24.83;;
65759;SDS011;52496;51.082;5.066;2022-12-07T06:11:01;42.03;;;23.88;;
65759;SDS011;52496;51.082;5.066;2022-12-07T06:13:50;45.20;;;23.20;;
65759;SDS011;52496;51.082;5.066;2022-12-07T06:16:21;51.50;;;25.27;;
65759;SDS011;52496;51.082;5.066;2022-12-07T06:18:51;51.72;;;25.23;;
65759;SDS011;52496;51.082;5.066;2022-12-07T06:21:22;42.35;;;22.48;;
65759;SDS011;52496;51.082;5.066;2022-12-07T06:23:53;51.40;;;26.27;;
65759;SDS011;52496;51.082;5.066;2022-12-07T06:26:23;39.08;;;22.77;;
65759;SDS011;52496;51.082;5.066;2022-12-07T06:28:54;43.90;;;21.60;;
65759;SDS011;52496;51.082;5.066;2022-12-07T06:31:24;62.33;;;24.20;;
65759;SDS011;52496;51.082;5.066;2022-12-07T06:34:02;45.65;;;23.73;;
65759;SDS011;52496;51.082;5.066;2022-12-07T06:36:34;42.67;;;20.70;;
65759;SDS011;52496;51.082;5.066;2022-12-07T06:39:05;54.55;;;23.10;;
65759;SDS011;52496;51.082;5.066;2022-12-07T06:41:36;45.78;;;21.30;;
65759;SDS011;52496;51.082;5.066;2022-12-07T06:44:07;64.80;;;22.77;;
65759;SDS011;52496;51.082;5.066;2022-12-07T06:46:38;50.17;;;21.67;;
65759;SDS011;52496;51.082;5.066;2022-12-07T06:49:08;51.60;;;21.73;;
65759;SDS011;52496;51.082;5.066;2022-12-07T06:51:39;43.88;;;21.10;;
65759;SDS011;52496;51.082;5.066;2022-12-07T06:54:13;38.80;;;20.50;;
65759;SDS011;52496;51.082;5.066;2022-12-07T06:56:44;38.85;;;19.58;;
65759;SDS011;52496;51.082;5.066;2022-12-07T06:59:15;51.28;;;21.13;;
65759;SDS011;52496;51.082;5.066;2022-12-07T07:01:45;39.00;;;19.30;;
65759;SDS011;52496;51.082;5.066;2022-12-07T07:04:16;28.50;;;17.67;;
65759;SDS011;52496;51.082;5.066;2022-12-07T07:06:46;50.65;;;20.88;;
65759;SDS011;52496;51.082;5.066;2022-12-07T07:09:17;61.28;;;21.90;;
65759;SDS011;52496;51.082;5.066;2022-12-07T07:11:47;34.30;;;19.33;;
65759;SDS011;52496;51.082;5.066;2022-12-07T07:14:18;39.10;;;21.20;;
65759;SDS011;52496;51.082;5.066;2022-12-07T07:16:49;73.82;;;25.40;;
65759;SDS011;52496;51.082;5.066;2022-12-07T07:19:20;77.25;;;21.38;;
65759;SDS011;52496;51.082;5.066;2022-12-07T07:21:50;46.70;;;20.27;;
65759;SDS011;52496;51.082;5.066;2022-12-07T07:24:21;34.10;;;19.02;;
65759;SDS011;52496;51.082;5.066;2022-12-07T07:26:51;35.47;;;19.17;;
65759;SDS011;52496;51.082;5.066;2022-12-07T07:29:22;64.78;;;22.52;;
65759;SDS011;52496;51.082;5.066;2022-12-07T07:31:52;59.22;;;20.05;;
65759;SDS011;52496;51.082;5.066;2022-12-07T07:34:23;47.67;;;20.67;;
65759;SDS011;52496;51.082;5.066;2022-12-07T07:36:53;32.58;;;18.88;;
65759;SDS011;52496;51.082;5.066;2022-12-07T07:39:25;42.63;;;19.52;;
65759;SDS011;52496;51.082;5.066;2022-12-07T07:41:55;53.05;;;20.35;;
65759;SDS011;52496;51.082;5.066;2022-12-07T07:44:26;95.63;;;27.75;;
65759;SDS011;52496;51.082;5.066;2022-12-07T07:46:56;48.13;;;21.60;;
65759;SDS011;52496;51.082;5.066;2022-12-07T07:49:26;42.05;;;22.52;;
65759;SDS011;52496;51.082;5.066;2022-12-07T07:51:57;54.13;;;23.13;;
65759;SDS011;52496;51.082;5.066;2022-12-07T07:54:28;47.78;;;21.77;;
65759;SDS011;52496;51.082;5.066;2022-12-07T07:56:58;69.28;;;26.25;;
65759;SDS011;52496;51.082;5.066;2022-12-07T07:59:29;62.28;;;24.67;;
65759;SDS011;52496;51.082;5.066;2022-12-07T08:01:59;62.15;;;24.05;;
65759;SDS011;52496;51.082;5.066;2022-12-07T08:04:30;59.28;;;25.13;;
65759;SDS011;52496;51.082;5.066;2022-12-07T08:07:01;49.95;;;24.02;;
65759;SDS011;52496;51.082;5.066;2022-12-07T08:09:31;84.93;;;30.73;;
65759;SDS011;52496;51.082;5.066;2022-12-07T08:12:02;58.50;;;26.27;;
65759;SDS011;52496;51.082;5.066;2022-12-07T08:14:33;62.65;;;25.80;;
65759;SDS011;52496;51.082;5.066;2022-12-07T08:17:04;62.42;;;26.95;;
65759;SDS011;52496;51.082;5.066;2022-12-07T08:19:34;55.08;;;25.50;;
65759;SDS011;52496;51.082;5.066;2022-12-07T08:22:04;56.28;;;28.33;;
65759;SDS011;52496;51.082;5.066;2022-12-07T08:24:35;51.25;;;25.30;;
65759;SDS011;52496;51.082;5.066;2022-12-07T08:27:06;52.88;;;26.38;;
65759;SDS011;52496;51.082;5.066;2022-12-07T08:29:36;53.67;;;24.60;;
65759;SDS011;52496;51.082;5.066;2022-12-07T08:32:07;47.78;;;25.05;;
65759;SDS011;52496;51.082;5.066;2022-12-07T08:34:37;55.55;;;25.08;;
65759;SDS011;52496;51.082;5.066;2022-12-07T08:37:08;50.92;;;26.10;;
65759;SDS011;52496;51.082;5.066;2022-12-07T08:39:40;60.08;;;26.10;;
65759;SDS011;52496;51.082;5.066;2022-12-07T08:42:20;63.40;;;26.92;;
65759;SDS011;52496;51.082;5.066;2022-12-07T08:44:53;54.25;;;25.08;;
65759;SDS011;52496;51.082;5.066;2022-12-07T08:47:23;57.45;;;25.45;;
65759;SDS011;52496;51.082;5.066;2022-12-07T08:49:55;49.58;;;24.77;;
65759;SDS011;52496;51.082;5.066;2022-12-07T08:52:26;52.83;;;25.05;;
65759;SDS011;52496;51.082;5.066;2022-12-07T08:54:57;49.22;;;23.88;;
65759;SDS011;52496;51.082;5.066;2022-12-07T08:57:30;42.55;;;22.45;;
65759;SDS011;52496;51.082;5.066;2022-12-07T09:00:04;50.15;;;22.88;;
65759;SDS011;52496;51.082;5.066;2022-12-07T09:02:35;40.97;;;22.60;;
65759;SDS011;52496;51.082;5.066;2022-12-07T09:05:06;49.47;;;23.70;;
65759;SDS011;52496;51.082;5.066;2022-12-07T09:07:36;37.08;;;19.95;;
65759;SDS011;52496;51.082;5.066;2022-12-07T09:10:08;40.88;;;22.58;;
65759;SDS011;52496;51.082;5.066;2022-12-07T09:12:39;43.40;;;22.08;;
65759;SDS011;52496;51.082;5.066;2022-12-07T09:15:09;38.88;;;22.60;;
65759;SDS011;52496;51.082;5.066;2022-12-07T09:17:40;37.45;;;20.52;;
65759;SDS011;52496;51.082;5.066;2022-12-07T09:20:11;38.95;;;21.63;;
65759;SDS011;52496;51.082;5.066;2022-12-07T09:22:42;38.20;;;20.55;;
65759;SDS011;52496;51.082;5.066;2022-12-07T09:25:12;38.15;;;20.17;;
65759;SDS011;52496;51.082;5.066;2022-12-07T09:27:42;34.40;;;19.50;;
65759;SDS011;52496;51.082;5.066;2022-12-07T09:30:13;34.13;;;20.20;;
65759;SDS011;52496;51.082;5.066;2022-12-07T09:32:43;38.65;;;18.63;;
65759;SDS011;52496;51.082;5.066;2022-12-07T09:35:14;29.83;;;16.63;;
65759;SDS011;52496;51.082;5.066;2022-12-07T09:37:44;33.97;;;16.95;;
65759;SDS011;52496;51.082;5.066;2022-12-07T09:40:16;28.73;;;15.23;;
65759;SDS011;52496;51.082;5.066;2022-12-07T09:42:51;26.00;;;14.35;;
65759;SDS011;52496;51.082;5.066;2022-12-07T09:45:24;27.40;;;14.95;;
65759;SDS011;52496;51.082;5.066;2022-12-07T09:47:59;24.83;;;13.88;;
65759;SDS011;52496;51.082;5.066;2022-12-07T09:50:30;22.27;;;13.05;;
65759;SDS011;52496;51.082;5.066;2022-12-07T09:53:08;21.55;;;13.43;;
65759;SDS011;52496;51.082;5.066;2022-12-07T09:55:44;24.85;;;12.23;;
65759;SDS011;52496;51.082;5.066;2022-12-07T09:58:22;24.25;;;13.20;;
65759;SDS011;52496;51.082;5.066;2022-12-07T10:03:38;19.33;;;10.95;;
65759;SDS011;52496;51.082;5.066;2022-12-07T10:06:10;24.17;;;12.02;;
65759;SDS011;52496;51.082;5.066;2022-12-07T10:08:42;23.38;;;11.05;;
65759;SDS011;52496;51.082;5.066;2022-12-07T10:11:13;16.92;;;10.57;;
65759;SDS011;52496;51.082;5.066;2022-12-07T10:13:47;20.65;;;10.18;;
65759;SDS011;52496;51.082;5.066;2022-12-07T10:18:58;24.52;;;11.50;;
65759;SDS011;52496;51.082;5.066;2022-12-07T10:22:01;17.60;;;10.88;;
65759;SDS011;52496;51.082;5.066;2022-12-07T10:24:35;20.45;;;11.65;;
65759;SDS011;52496;51.082;5.066;2022-12-07T10:27:22;15.57;;;10.35;;
65759;SDS011;52496;51.082;5.066;2022-12-07T10:30:01;17.30;;;10.38;;
65759;SDS011;52496;51.082;5.066;2022-12-07T10:32:39;23.85;;;11.55;;
65759;SDS011;52496;51.082;5.066;2022-12-07T10:37:58;22.92;;;11.25;;
65759;SDS011;52496;51.082;5.066;2022-12-07T10:43:18;21.92;;;11.32;;
65759;SDS011;52496;51.082;5.066;2022-12-07T10:51:57;15.60;;;10.40;;
65759;SDS011;52496;51.082;5.066;2022-12-07T11:00:21;17.15;;;8.95;;
65759;SDS011;52496;51.082;5.066;2022-12-07T11:05:48;18.00;;;9.20;;
65759;SDS011;52496;51.082;5.066;2022-12-07T11:11:21;13.27;;;9.07;;
65759;SDS011;52496;51.082;5.066;2022-12-07T11:14:03;14.48;;;8.07;;
65759;SDS011;52496;51.082;5.066;2022-12-07T11:22:06;13.57;;;7.40;;
65759;SDS011;52496;51.082;5.066;2022-12-07T11:25:02;11.25;;;7.97;;
65759;SDS011;52496;51.082;5.066;2022-12-07T11:33:49;12.45;;;7.65;;
65759;SDS011;52496;51.082;5.066;2022-12-07T11:36:39;12.70;;;7.88;;
65759;SDS011;52496;51.082;5.066;2022-12-07T11:39:23;18.67;;;8.52;;
65759;SDS011;52496;51.082;5.066;2022-12-07T11:42:21;17.23;;;7.55;;
65759;SDS011;52496;51.082;5.066;2022-12-07T11:45:04;12.57;;;7.32;;
65759;SDS011;52496;51.082;5.066;2022-12-07T11:53:03;14.70;;;7.10;;
65759;SDS011;52496;51.082;5.066;2022-12-07T12:03:51;12.75;;;6.45;;
65759;SDS011;52496;51.082;5.066;2022-12-07T12:06:24;12.57;;;5.90;;
65759;SDS011;52496;51.082;5.066;2022-12-07T12:14:55;9.07;;;4.30;;
65759;SDS011;52496;51.082;5.066;2022-12-07T12:17:50;9.30;;;3.50;;
65759;SDS011;52496;51.082;5.066;2022-12-07T12:20:53;10.70;;;3.30;;
65759;SDS011;52496;51.082;5.066;2022-12-07T12:26:18;9.73;;;3.60;;
65759;SDS011;52496;51.082;5.066;2022-12-07T12:28:52;10.35;;;3.45;;
65759;SDS011;52496;51.082;5.066;2022-12-07T12:31:36;9.73;;;3.30;;
65759;SDS011;52496;51.082;5.066;2022-12-07T12:37:01;7.55;;;2.90;;
65759;SDS011;52496;51.082;5.066;2022-12-07T12:39:32;13.68;;;3.50;;
65759;SDS011;52496;51.082;5.066;2022-12-07T12:42:02;9.60;;;3.45;;
65759;SDS011;52496;51.082;5.066;2022-12-07T12:47:04;7.32;;;3.60;;
65759;SDS011;52496;51.082;5.066;2022-12-07T12:50:18;6.85;;;3.25;;
65759;SDS011;52496;51.082;5.066;2022-12-07T12:53:14;10.32;;;3.58;;
65759;SDS011;52496;51.082;5.066;2022-12-07T12:58:46;8.93;;;3.05;;
65759;SDS011;52496;51.082;5.066;2022-12-07T13:01:32;11.68;;;4.25;;
65759;SDS011;52496;51.082;5.066;2022-12-07T13:04:21;8.02;;;3.22;;
65759;SDS011;52496;51.082;5.066;2022-12-07T13:06:55;9.43;;;3.28;;
65759;SDS011;52496;51.082;5.066;2022-12-07T13:09:27;7.55;;;3.30;;
65759;SDS011;52496;51.082;5.066;2022-12-07T13:12:02;8.93;;;3.38;;
65759;SDS011;52496;51.082;5.066;2022-12-07T13:14:42;7.50;;;3.55;;
65759;SDS011;52496;51.082;5.066;2022-12-07T13:20:03;9.07;;;3.30;;
65759;SDS011;52496;51.082;5.066;2022-12-07T13:22:38;8.98;;;3.75;;
65759;SDS011;52496;51.082;5.066;2022-12-07T13:25:17;8.48;;;3.83;;
65759;SDS011;52496;51.082;5.066;2022-12-07T13:27:58;11.27;;;4.47;;
65759;SDS011;52496;51.082;5.066;2022-12-07T13:30:32;11.57;;;4.22;;
65759;SDS011;52496;51.082;5.066;2022-12-07T13:33:10;8.55;;;3.90;;
65759;SDS011;52496;51.082;5.066;2022-12-07T13:35:41;10.07;;;4.47;;
65759;SDS011;52496;51.082;5.066;2022-12-07T13:41:04;8.27;;;4.43;;
65759;SDS011;52496;51.082;5.066;2022-12-07T13:43:42;8.63;;;4.20;;
65759;SDS011;52496;51.082;5.066;2022-12-07T13:46:13;9.68;;;4.72;;
65759;SDS011;52496;51.082;5.066;2022-12-07T13:48:48;12.38;;;4.40;;
65759;SDS011;52496;51.082;5.066;2022-12-07T13:51:26;7.55;;;4.50;;
65759;SDS011;52496;51.082;5.066;2022-12-07T13:54:06;12.75;;;4.68;;
65759;SDS011;52496;51.082;5.066;2022-12-07T13:56:40;12.55;;;5.00;;
65759;SDS011;52496;51.082;5.066;2022-12-07T13:59:21;10.13;;;5.03;;
65759;SDS011;52496;51.082;5.066;2022-12-07T14:01:54;8.48;;;4.35;;
65759;SDS011;52496;51.082;5.066;2022-12-07T14:04:28;11.02;;;4.53;;
65759;SDS011;52496;51.082;5.066;2022-12-07T14:07:18;10.43;;;4.93;;
65759;SDS011;52496;51.082;5.066;2022-12-07T14:10:00;8.82;;;4.95;;
65759;SDS011;52496;51.082;5.066;2022-12-07T14:12:35;9.88;;;4.90;;
65759;SDS011;52496;51.082;5.066;2022-12-07T14:15:15;9.80;;;5.00;;
65759;SDS011;52496;51.082;5.066;2022-12-07T14:17:52;9.30;;;5.30;;
65759;SDS011;52496;51.082;5.066;2022-12-07T14:20:32;11.90;;;5.03;;
65759;SDS011;52496;51.082;5.066;2022-12-07T14:23:05;9.02;;;4.18;;
65759;SDS011;52496;51.082;5.066;2022-12-07T14:25:53;11.02;;;5.28;;
65759;SDS011;52496;51.082;5.066;2022-12-07T14:28:28;11.52;;;5.43;;
65759;SDS011;52496;51.082;5.066;2022-12-07T14:31:03;13.60;;;4.97;;
65759;SDS011;52496;51.082;5.066;2022-12-07T14:33:40;12.30;;;4.78;;
65759;SDS011;52496;51.082;5.066;2022-12-07T14:36:12;11.38;;;4.60;;
65759;SDS011;52496;51.082;5.066;2022-12-07T14:38:44;12.48;;;4.55;;
65759;SDS011;52496;51.082;5.066;2022-12-07T14:41:15;13.40;;;5.35;;
65759;SDS011;52496;51.082;5.066;2022-12-07T14:44:11;14.18;;;5.18;;
65759;SDS011;52496;51.082;5.066;2022-12-07T14:46:42;9.77;;;5.43;;
65759;SDS011;52496;51.082;5.066;2022-12-07T14:49:13;10.00;;;4.50;;
65759;SDS011;52496;51.082;5.066;2022-12-07T14:51:44;8.68;;;4.55;;
65759;SDS011;52496;51.082;5.066;2022-12-07T14:54:17;9.23;;;4.60;;
65759;SDS011;52496;51.082;5.066;2022-12-07T14:56:49;10.00;;;4.70;;
65759;SDS011;52496;51.082;5.066;2022-12-07T14:59:21;7.93;;;4.70;;
65759;SDS011;52496;51.082;5.066;2022-12-07T15:01:51;8.15;;;4.57;;
65759;SDS011;52496;51.082;5.066;2022-12-07T15:04:22;9.18;;;4.43;;
65759;SDS011;52496;51.082;5.066;2022-12-07T15:06:59;8.25;;;4.40;;
65759;SDS011;52496;51.082;5.066;2022-12-07T15:09:31;8.02;;;4.88;;
65759;SDS011;52496;51.082;5.066;2022-12-07T15:12:02;7.57;;;4.60;;
65759;SDS011;52496;51.082;5.066;2022-12-07T15:14:33;9.32;;;4.82;;
65759;SDS011;52496;51.082;5.066;2022-12-07T15:17:04;8.07;;;4.80;;
65759;SDS011;52496;51.082;5.066;2022-12-07T15:19:34;15.43;;;5.47;;
65759;SDS011;52496;51.082;5.066;2022-12-07T15:22:05;10.10;;;5.25;;
65759;SDS011;52496;51.082;5.066;2022-12-07T15:24:36;12.15;;;5.38;;
65759;SDS011;52496;51.082;5.066;2022-12-07T15:27:07;11.35;;;5.57;;
65759;SDS011;52496;51.082;5.066;2022-12-07T15:29:37;10.10;;;5.60;;
65759;SDS011;52496;51.082;5.066;2022-12-07T15:32:08;10.75;;;5.35;;
65759;SDS011;52496;51.082;5.066;2022-12-07T15:34:38;12.25;;;6.00;;
65759;SDS011;52496;51.082;5.066;2022-12-07T15:37:09;9.70;;;6.30;;
65759;SDS011;52496;51.082;5.066;2022-12-07T15:39:39;9.73;;;5.97;;
65759;SDS011;52496;51.082;5.066;2022-12-07T15:42:10;10.35;;;6.05;;
65759;SDS011;52496;51.082;5.066;2022-12-07T15:44:40;9.73;;;5.80;;
65759;SDS011;52496;51.082;5.066;2022-12-07T15:47:30;9.32;;;6.32;;
65759;SDS011;52496;51.082;5.066;2022-12-07T15:50:08;14.88;;;6.68;;
65759;SDS011;52496;51.082;5.066;2022-12-07T15:52:40;14.80;;;7.63;;
65759;SDS011;52496;51.082;5.066;2022-12-07T15:55:11;13.52;;;8.20;;
65759;SDS011;52496;51.082;5.066;2022-12-07T15:57:41;12.18;;;7.88;;
65759;SDS011;52496;51.082;5.066;2022-12-07T16:00:12;13.65;;;7.65;;
65759;SDS011;52496;51.082;5.066;2022-12-07T16:02:43;16.13;;;6.97;;
65759;SDS011;52496;51.082;5.066;2022-12-07T16:05:14;15.23;;;7.47;;
65759;SDS011;52496;51.082;5.066;2022-12-07T16:07:44;19.42;;;8.23;;
65759;SDS011;52496;51.082;5.066;2022-12-07T16:10:16;15.40;;;7.57;;
65759;SDS011;52496;51.082;5.066;2022-12-07T16:12:47;12.38;;;8.05;;
65759;SDS011;52496;51.082;5.066;2022-12-07T16:15:17;11.82;;;7.43;;
65759;SDS011;52496;51.082;5.066;2022-12-07T16:17:48;12.95;;;6.75;;
65759;SDS011;52496;51.082;5.066;2022-12-07T16:20:18;12.25;;;7.75;;
65759;SDS011;52496;51.082;5.066;2022-12-07T16:22:51;13.98;;;7.55;;
65759;SDS011;52496;51.082;5.066;2022-12-07T16:25:22;14.00;;;7.63;;
65759;SDS011;52496;51.082;5.066;2022-12-07T16:27:53;11.98;;;7.30;;
65759;SDS011;52496;51.082;5.066;2022-12-07T16:30:23;13.43;;;7.97;;
65759;SDS011;52496;51.082;5.066;2022-12-07T16:32:55;17.70;;;8.05;;
65759;SDS011;52496;51.082;5.066;2022-12-07T16:35:25;13.57;;;8.40;;
65759;SDS011;52496;51.082;5.066;2022-12-07T16:37:56;15.70;;;7.55;;
65759;SDS011;52496;51.082;5.066;2022-12-07T16:40:27;13.77;;;7.38;;
65759;SDS011;52496;51.082;5.066;2022-12-07T16:42:57;13.55;;;7.28;;
65759;SDS011;52496;51.082;5.066;2022-12-07T16:45:28;12.77;;;7.03;;
65759;SDS011;52496;51.082;5.066;2022-12-07T16:47:58;14.82;;;7.82;;
65759;SDS011;52496;51.082;5.066;2022-12-07T16:50:28;13.90;;;7.25;;
65759;SDS011;52496;51.082;5.066;2022-12-07T16:52:59;11.23;;;6.25;;